createdAt,value
2022-09-03T00:03:37.424Z,101090.31
2022-09-03T00:09:03.406Z,101092.13
2022-09-03T00:14:32.583Z,101082.63
2022-09-03T00:20:00.261Z,101080.91
2022-09-03T00:25:35.480Z,101085.19
2022-09-03T00:31:08.731Z,101072.44
2022-09-03T00:36:42.408Z,101088.13
2022-09-03T00:42:07.185Z,101087.63
2022-09-03T00:47:40.878Z,101088.75
2022-09-03T00:53:14.828Z,101087.13
2022-09-03T00:58:45.219Z,101096.59
2022-09-03T01:04:34.658Z,101101.09
2022-09-03T01:10:08.773Z,101100.22
2022-09-03T01:16:04.750Z,101103.88
2022-09-03T01:22:00.805Z,101092.06
2022-09-03T01:27:32.359Z,101101.66
2022-09-03T01:33:18.241Z,101098.44
2022-09-03T01:38:59.739Z,101089.22
2022-09-03T01:44:36.553Z,101096.19
2022-09-03T01:50:15.944Z,101103.13
2022-09-03T01:56:09.191Z,101083.38
2022-09-03T02:01:40.025Z,101085.22
2022-09-03T02:07:03.374Z,101079.31
2022-09-03T02:12:25.379Z,101081.00
2022-09-03T02:17:49.176Z,101070.88
2022-09-03T02:23:11.026Z,101075.19
2022-09-03T02:28:33.662Z,101067.56
2022-09-03T02:33:57.724Z,101077.91
2022-09-03T02:39:19.972Z,101072.91
2022-09-03T02:44:48.133Z,101072.94
2022-09-03T02:50:10.131Z,101082.31
2022-09-03T02:55:31.921Z,101083.28
2022-09-03T03:00:54.598Z,101068.72
2022-09-03T03:06:16.752Z,101072.13
2022-09-03T03:11:38.573Z,101081.53
2022-09-03T03:17:00.432Z,101084.13
2022-09-03T03:22:22.269Z,101087.69
2022-09-03T03:27:44.071Z,101086.03
2022-09-03T03:33:06.885Z,101087.75
2022-09-03T03:38:28.701Z,101088.69
2022-09-03T03:43:58.745Z,101098.97
2022-09-03T03:49:20.574Z,101098.13
2022-09-03T03:54:42.391Z,101103.22
2022-09-03T04:00:04.857Z,101104.00
2022-09-03T04:05:26.670Z,101102.38
2022-09-03T04:10:48.861Z,101102.03
2022-09-03T04:16:14.970Z,101106.19
2022-09-03T04:21:36.814Z,101089.72
2022-09-03T04:26:58.612Z,101088.56
2022-09-03T04:32:20.436Z,101085.28
2022-09-03T04:37:42.285Z,101081.41
2022-09-03T04:43:04.259Z,101082.91
2022-09-03T04:48:27.750Z,101089.00
2022-09-03T04:53:57.327Z,101082.56
2022-09-03T04:59:19.186Z,101084.28
2022-09-03T05:04:41.903Z,101091.66
2022-09-03T05:10:10.194Z,101091.38
2022-09-03T05:15:32.934Z,101100.03
2022-09-03T05:21:08.485Z,101109.59
2022-09-03T05:26:33.347Z,101113.69
2022-09-03T05:31:55.228Z,101104.00
2022-09-03T05:37:17.111Z,101099.53
2022-09-03T05:42:39.186Z,101104.47
2022-09-03T05:48:01.059Z,101098.16
2022-09-03T05:53:23.008Z,101099.28
2022-09-03T05:58:50.182Z,101091.75
2022-09-03T06:04:14.792Z,101092.53
2022-09-03T06:09:36.790Z,101090.13
2022-09-03T06:14:58.651Z,101090.56
2022-09-03T06:20:20.472Z,101093.00
2022-09-03T06:25:42.320Z,101088.13
2022-09-03T06:31:06.314Z,101093.06
2022-09-03T06:36:28.152Z,101099.09
2022-09-03T06:41:50.080Z,101094.75
2022-09-03T06:47:11.857Z,101096.06
2022-09-03T06:52:33.656Z,101089.78
2022-09-03T06:57:55.799Z,101101.16
2022-09-03T07:03:20.034Z,101088.91
2022-09-03T07:08:42.792Z,101095.84
2022-09-03T07:14:05.435Z,101093.19
2022-09-03T07:19:27.260Z,101091.91
2022-09-03T07:24:49.126Z,101095.63
2022-09-03T07:30:11.617Z,101094.53
2022-09-03T07:35:37.008Z,101101.25
2022-09-03T07:41:00.241Z,101103.94
2022-09-03T07:46:24.791Z,101094.25
2022-09-03T07:51:46.806Z,101100.16
2022-09-03T07:57:08.629Z,101088.41
2022-09-03T08:02:30.436Z,101088.75
2022-09-03T08:07:52.267Z,101095.50
2022-09-03T08:13:14.069Z,101099.97
2022-09-03T08:18:36.657Z,101097.91
2022-09-03T08:23:58.821Z,101087.69
2022-09-03T08:29:21.242Z,101091.72
2022-09-03T08:34:43.121Z,101097.28
2022-09-03T08:40:05.738Z,101083.91
2022-09-03T08:45:28.640Z,101082.34
2022-09-03T08:50:52.428Z,101073.59
2022-09-03T08:56:35.715Z,101070.06
2022-09-03T09:02:15.339Z,101069.38
2022-09-03T09:07:47.981Z,101060.47
2022-09-03T09:13:22.537Z,101065.06
2022-09-03T09:18:56.610Z,101046.19
2022-09-03T09:24:27.147Z,101066.56
2022-09-03T09:29:50.631Z,101051.22
2022-09-03T09:35:17.409Z,101049.31
2022-09-03T09:40:45.284Z,101058.69
2022-09-03T09:46:13.307Z,101052.22
2022-09-03T09:51:35.127Z,101049.13
2022-09-03T09:57:03.264Z,101056.63
2022-09-03T10:02:27.209Z,101065.19
2022-09-03T10:08:01.198Z,101058.88
2022-09-03T10:13:29.909Z,101049.59
2022-09-03T10:19:04.594Z,101050.41
2022-09-03T10:24:52.583Z,101059.31
2022-09-03T10:30:14.416Z,101048.31
2022-09-03T10:35:45.641Z,101050.31
2022-09-03T10:41:24.211Z,101033.47
2022-09-03T10:47:09.359Z,101029.00
2022-09-03T10:52:55.882Z,101021.78
2022-09-03T10:58:49.905Z,101018.75
2022-09-03T11:04:36.379Z,101015.59
2022-09-03T11:10:21.675Z,101014.63
2022-09-03T11:15:59.350Z,101009.28
2022-09-03T11:21:27.309Z,100997.34
2022-09-03T11:26:57.734Z,100997.91
2022-09-03T11:32:30.301Z,100997.19
2022-09-03T11:38:03.369Z,101004.56
2022-09-03T11:43:25.181Z,100998.56
2022-09-03T11:48:49.914Z,100991.22
2022-09-03T11:54:17.908Z,101003.41
2022-09-03T11:59:42.898Z,100986.94
2022-09-03T12:05:29.321Z,100989.19
2022-09-03T12:11:23.647Z,100963.56
2022-09-03T12:16:45.394Z,100979.66
2022-09-03T12:22:15.974Z,100967.47
2022-09-03T12:27:38.355Z,100945.81
2022-09-03T12:33:08.047Z,100939.94
2022-09-03T12:38:29.998Z,100951.06
2022-09-03T12:43:57.517Z,100935.34
2022-09-03T12:49:34.674Z,100935.25
2022-09-03T12:55:21.162Z,100931.97
2022-09-03T13:01:05.703Z,100934.31
2022-09-03T13:06:39.609Z,100919.53
2022-09-03T13:12:01.814Z,100922.88
2022-09-03T13:17:29.552Z,100917.94
2022-09-03T13:23:09.858Z,100912.22
2022-09-03T13:29:06.654Z,100898.22
2022-09-03T13:34:37.609Z,100897.97
2022-09-03T13:40:10.853Z,100899.66
2022-09-03T13:45:41.143Z,100884.53
2022-09-03T13:51:22.554Z,100893.97
2022-09-03T13:57:21.114Z,100897.13
2022-09-03T14:02:51.102Z,100893.56
2022-09-03T14:08:30.765Z,100878.91
2022-09-03T14:14:18.001Z,100884.34
2022-09-03T14:19:55.454Z,100883.84
2022-09-03T14:25:18.907Z,100896.81
2022-09-03T14:30:55.798Z,100875.28
2022-09-03T14:36:33.261Z,100887.63
2022-09-03T14:42:01.296Z,100879.53
2022-09-03T14:47:47.253Z,100885.84
2022-09-03T14:53:27.141Z,100870.66
2022-09-03T14:59:07.827Z,100871.81
2022-09-03T15:05:08.313Z,100882.63
2022-09-03T15:10:42.609Z,100884.56
2022-09-03T15:16:35.305Z,100883.69
2022-09-03T15:22:13.063Z,100877.00
2022-09-03T15:27:57.059Z,100881.88
2022-09-03T15:33:28.393Z,100875.72
2022-09-03T15:39:02.031Z,100881.53
2022-09-03T15:44:26.446Z,100872.69
2022-09-03T15:50:00.664Z,100884.91
2022-09-03T15:55:32.612Z,100879.22
2022-09-03T16:01:04.337Z,100890.56
2022-09-03T16:06:38.016Z,100888.28
2022-09-03T16:12:15.169Z,100892.34
2022-09-03T16:17:50.021Z,100886.47
2022-09-03T16:23:26.726Z,100891.94
2022-09-03T16:29:11.952Z,100896.31
2022-09-03T16:34:54.689Z,100903.13
2022-09-03T16:40:32.444Z,100894.34
2022-09-03T16:46:03.050Z,100902.72
2022-09-03T16:51:53.910Z,100892.88
2022-09-03T16:57:43.564Z,100900.34
2022-09-03T17:03:33.253Z,100911.31
2022-09-03T17:09:13.834Z,100911.34
2022-09-03T17:15:09.288Z,100914.25
2022-09-03T17:20:55.356Z,100918.34
2022-09-03T17:26:20.098Z,100928.16
2022-09-03T17:32:18.782Z,100921.94
2022-09-03T17:38:05.794Z,100940.19
2022-09-03T17:43:33.611Z,100933.03
2022-09-03T17:48:58.777Z,100934.78
2022-09-03T17:54:23.424Z,100949.84
2022-09-03T17:59:53.953Z,100955.78
2022-09-03T18:05:31.005Z,100957.81
2022-09-03T18:11:13.570Z,100961.44
2022-09-03T18:16:41.376Z,100952.75
2022-09-03T18:22:05.367Z,100940.31
2022-09-03T18:28:03.585Z,100949.38
2022-09-03T18:33:26.455Z,100938.72
2022-09-03T18:38:48.351Z,100948.13
2022-09-03T18:44:10.111Z,100950.53
2022-09-03T18:49:40.783Z,100950.69
2022-09-03T18:55:20.084Z,100960.22
2022-09-03T19:00:58.963Z,100956.22
2022-09-03T19:06:35.739Z,100953.03
2022-09-03T19:12:11.229Z,100965.47
2022-09-03T19:17:38.808Z,100970.88
2022-09-03T19:23:02.843Z,100959.53
2022-09-03T19:28:27.433Z,100969.34
2022-09-03T19:34:06.885Z,100973.50
2022-09-03T19:39:40.906Z,100973.72
2022-09-03T19:45:21.099Z,100971.25
2022-09-03T19:50:57.790Z,100974.28
2022-09-03T19:56:27.385Z,100974.28
2022-09-03T20:01:49.667Z,100979.41
2022-09-03T20:07:11.512Z,100984.31
2022-09-03T20:12:39.929Z,100974.59
2022-09-03T20:18:30.193Z,100987.25
2022-09-03T20:24:15.588Z,100989.56
2022-09-03T20:29:53.147Z,100967.41
2022-09-03T20:35:29.789Z,100987.41
2022-09-03T20:40:57.256Z,100996.19
2022-09-03T20:46:37.272Z,100998.97
2022-09-03T20:52:04.658Z,100989.59
2022-09-03T20:57:40.694Z,100999.88
2022-09-03T21:03:15.240Z,101008.69
2022-09-03T21:08:49.130Z,101011.28
2022-09-03T21:14:34.109Z,101007.59
2022-09-03T21:20:16.890Z,101013.44
2022-09-03T21:25:44.361Z,101016.00
2022-09-03T21:31:32.853Z,101021.47
2022-09-03T21:37:04.355Z,101023.09
2022-09-03T21:42:49.184Z,101018.25
2022-09-03T21:48:22.741Z,101025.53
2022-09-03T21:54:04.947Z,101024.38
2022-09-03T21:59:51.710Z,101041.63
2022-09-03T22:05:15.712Z,101040.03
2022-09-03T22:10:40.682Z,101054.97
2022-09-03T22:16:17.296Z,101043.88
2022-09-03T22:21:48.016Z,101061.72
2022-09-03T22:27:21.120Z,101064.66
2022-09-03T22:33:05.751Z,101058.53
2022-09-03T22:38:39.716Z,101074.84
2022-09-03T22:44:10.465Z,101071.72
2022-09-03T22:49:39.717Z,101080.94
2022-09-03T22:55:21.227Z,101080.41
2022-09-03T23:00:56.713Z,101064.00
2022-09-03T23:06:29.989Z,101067.56
2022-09-03T23:11:59.950Z,101075.47
2022-09-03T23:23:05.863Z,101081.97
2022-09-03T23:28:34.047Z,101098.31
2022-09-03T23:33:55.861Z,101098.38
2022-09-03T23:40:03.298Z,101110.19
2022-09-03T23:45:38.813Z,101116.34
2022-09-03T23:51:19.137Z,101119.41
2022-09-03T23:57:06.759Z,101115.25
